Terminal Aerodrome Forecast
Issued by NWS

Home | Current Version | Previous Version | Text Only | Print | Product List | Glossary On
Versions: 1 2 3 4 5 6 7 8 9 10 11 12 13 14 15 16 17 18
000
FTUS44 KLZK 232330
TAFHRO
TAF
KHRO 232330Z 2400/2424 15014KT P6SM SKC
     FM240600 16011G18KT P6SM BKN250 WS020/19050KT
     FM241400 17015KT P6SM BKN035 PROB30 2421/2424 4SM TSRA BR
      OVC030CB=

USA.gov is the U.S. government's official web portal to all federal, state and local government web resources and services.